Time;durP1;ratioP1;P1;durP2;ratioP2;P2;SDS_P1;SDS_P2;PMS_P1;PMS_P2;Temp;Humidity;BMP_temperature;BMP_pressure;BME280_temperature;BME280_humidity;BME280_pressure;Samples;Min_cycle;Max_cycle;Signal;HPM_P1;HPM_P2
2021/08/08 00:04:42;;;;;;;5.83;5.33;;;;;;;18.12;70.82;98915.20;257045;1103;115494;-67
2021/08/08 00:09:46;;;;;;;5.68;5.18;;;;;;;18.13;70.61;98903.31;257132;1103;115162;-67
2021/08/08 00:14:49;;;;;;;4.63;4.20;;;;;;;18.14;70.44;98880.64;257064;1104;115006;-67
2021/08/08 00:19:53;;;;;;;4.53;4.13;;;;;;;18.14;69.69;98873.34;257256;1104;114690;-65
2021/08/08 00:24:57;;;;;;;4.37;3.97;;;;;;;18.13;70.45;98873.65;257267;1103;115861;-70
2021/08/08 00:30:00;;;;;;;4.25;3.85;;;;;;;18.09;70.33;98861.88;257397;1104;115475;-71
2021/08/08 00:35:03;;;;;;;8.58;4.93;;;;;;;18.12;70.74;98845.88;257062;1104;116402;-71
2021/08/08 00:40:07;;;;;;;7.10;4.50;;;;;;;18.16;70.58;98840.67;255828;1104;115804;-68
2021/08/08 00:45:13;;;;;;;4.13;3.83;;;;;;;18.22;70.54;98828.67;255451;1104;116975;-66
2021/08/08 00:50:17;;;;;;;4.88;4.48;;;;;;;18.31;70.66;98812.55;255700;1104;115312;-67
2021/08/08 00:55:22;;;;;;;4.58;4.15;;;;;;;18.38;70.90;98802.09;254116;1104;115557;-67
2021/08/08 01:00:25;;;;;;;6.48;4.68;;;;;;;18.44;70.76;98804.36;255454;1104;115796;-68
2021/08/08 01:05:38;;;;;;;4.23;3.88;;;;;;;18.51;70.50;98796.63;256586;1104;115986;-66
2021/08/08 01:10:44;;;;;;;7.60;4.53;;;;;;;18.58;70.63;98788.09;253990;1103;116341;-66
2021/08/08 01:15:50;;;;;;;5.90;4.78;;;;;;;18.59;70.43;98767.30;254030;1104;115725;-67
2021/08/08 01:20:54;;;;;;;4.85;4.45;;;;;;;18.56;70.49;98773.31;254485;1104;115941;-67
2021/08/08 01:25:59;;;;;;;5.23;4.73;;;;;;;18.56;70.38;98774.11;254761;1100;117021;-67
2021/08/08 01:31:02;;;;;;;4.68;4.28;;;;;;;18.56;70.19;98766.02;254020;1104;115615;-67
2021/08/08 01:36:05;;;;;;;4.97;4.60;;;;;;;18.56;70.21;98771.41;255301;1104;115238;-67
2021/08/08 01:41:13;;;;;;;6.03;5.48;;;;;;;18.55;70.31;98763.63;255245;1104;118627;-67
2021/08/08 01:46:17;;;;;;;6.75;5.18;;;;;;;18.57;70.51;98759.52;254117;1104;115712;-68
2021/08/08 01:51:21;;;;;;;10.80;4.75;;;;;;;18.62;70.45;98796.41;255952;1104;115838;-66
2021/08/08 01:56:25;;;;;;;5.73;4.78;;;;;;;18.61;70.60;98792.91;257269;1104;115285;-67
2021/08/08 02:01:29;;;;;;;4.03;3.73;;;;;;;18.62;70.65;98818.80;255708;1104;115884;-68
2021/08/08 02:06:33;;;;;;;5.40;4.90;;;;;;;18.64;71.03;98791.50;257258;1104;115181;-68
2021/08/08 02:11:36;;;;;;;9.83;5.50;;;;;;;18.56;71.34;98752.52;257247;1104;115730;-68
2021/08/08 02:16:39;;;;;;;15.78;8.28;;;;;;;18.54;71.79;98727.74;255484;1103;115800;-67
2021/08/08 02:21:42;;;;;;;4.98;4.48;;;;;;;18.41;72.26;98732.13;257130;1104;115432;-67
2021/08/08 02:26:45;;;;;;;5.13;4.63;;;;;;;18.36;72.74;98770.02;257176;1103;115063;-67
2021/08/08 02:31:48;;;;;;;7.57;5.63;;;;;;;18.35;72.96;98781.92;257190;1103;116839;-67
2021/08/08 02:36:55;;;;;;;;;;;;;;;18.36;73.26;98780.81;257156;1104;115851;-67
2021/08/08 02:41:58;;;;;;;5.43;5.03;;;;;;;18.33;73.53;98786.05;256633;1100;103051;-67
2021/08/08 02:47:01;;;;;;;7.48;5.35;;;;;;;18.35;73.96;98800.01;255216;1104;115033;-66
2021/08/08 02:52:05;;;;;;;5.75;5.25;;;;;;;18.30;73.89;98811.75;254029;1100;115378;-67
2021/08/08 02:57:08;;;;;;;9.08;5.65;;;;;;;18.26;74.03;98808.07;255924;1104;115464;-67
2021/08/08 03:02:12;;;;;;;6.15;5.55;;;;;;;18.18;74.36;98819.59;255290;1104;115004;-67
2021/08/08 03:07:17;;;;;;;5.85;5.35;;;;;;;18.14;74.78;98832.09;253977;1104;114915;-66
2021/08/08 03:12:20;;;;;;;4.33;3.93;;;;;;;18.10;75.08;98842.69;253888;1104;115510;-67
2021/08/08 03:17:23;;;;;;;5.33;4.25;;;;;;;18.00;75.18;98845.64;255508;1104;114834;-66
2021/08/08 03:22:26;;;;;;;6.55;4.70;;;;;;;17.92;75.69;98854.45;254004;1104;115012;-66
2021/08/08 03:27:31;;;;;;;6.07;3.97;;;;;;;17.94;76.06;98848.75;256590;1104;116504;-67
2021/08/08 03:32:41;;;;;;;7.37;4.23;;;;;;;17.96;76.29;98841.95;256488;1104;115402;-68
2021/08/08 03:37:44;;;;;;;3.80;3.50;;;;;;;17.99;76.52;98843.25;254164;1100;116575;-67
2021/08/08 03:42:48;;;;;;;4.50;3.70;;;;;;;18.07;76.91;98837.11;254026;1104;115806;-67
2021/08/08 03:47:52;;;;;;;10.80;4.27;;;;;;;18.15;76.58;98834.48;256988;1104;115927;-67
2021/08/08 03:52:56;;;;;;;4.80;3.77;;;;;;;18.18;77.05;98833.08;257319;1104;117515;-67
2021/08/08 03:57:59;;;;;;;4.55;4.15;;;;;;;18.23;76.93;98822.17;255349;1098;116003;-66
2021/08/08 04:03:03;;;;;;;5.00;4.23;;;;;;;18.30;76.97;98827.94;257053;1104;116420;-67
2021/08/08 04:08:07;;;;;;;4.75;4.35;;;;;;;18.45;77.08;98864.52;257114;1103;114441;-67
2021/08/08 04:13:10;;;;;;;4.10;3.73;;;;;;;18.44;77.01;98869.13;257025;1104;115326;-69
2021/08/08 04:18:14;;;;;;;5.40;4.80;;;;;;;18.48;76.90;98863.91;257199;1104;116390;-69
2021/08/08 04:23:17;;;;;;;5.30;4.87;;;;;;;18.51;76.81;98857.91;257133;1103;117009;-70
2021/08/08 04:28:20;;;;;;;7.83;5.45;;;;;;;18.51;77.17;98855.20;257302;1104;115924;-69
2021/08/08 04:33:24;;;;;;;5.35;4.85;;;;;;;18.56;77.22;98854.28;257300;1104;115889;-69
2021/08/08 04:38:27;;;;;;;6.23;4.03;;;;;;;18.55;77.43;98871.58;257293;1104;115759;-69
2021/08/08 04:43:30;;;;;;;4.63;3.93;;;;;;;18.56;77.20;98878.58;257318;1104;116705;-68
2021/08/08 04:48:34;;;;;;;4.57;3.97;;;;;;;18.61;77.35;98879.28;257155;1104;114934;-68
2021/08/08 04:53:37;;;;;;;11.40;4.07;;;;;;;18.61;77.51;98881.19;257170;1103;117060;-69
2021/08/08 04:58:39;;;;;;;4.57;4.27;;;;;;;18.60;77.46;98893.08;255455;1103;115328;-69
2021/08/08 05:03:43;;;;;;;6.70;5.85;;;;;;;18.62;77.61;98905.17;253848;1100;115332;-66
2021/08/08 05:08:46;;;;;;;6.78;6.05;;;;;;;18.53;77.57;98909.67;255585;1104;114838;-67
2021/08/08 05:13:50;;;;;;;6.85;6.25;;;;;;;18.54;77.70;98918.56;254877;1103;115403;-67
2021/08/08 05:18:53;;;;;;;4.70;4.38;;;;;;;18.60;77.85;98936.27;253925;1103;115278;-66
2021/08/08 05:23:55;;;;;;;9.45;8.75;;;;;;;18.47;77.64;98962.97;254510;1103;115173;-66
2021/08/08 05:28:59;;;;;;;11.00;9.90;;;;;;;18.39;78.04;98958.28;253743;1100;116072;-66
2021/08/08 05:34:02;;;;;;;12.18;9.85;;;;;;;18.35;77.55;98973.48;254127;1104;115111;-66
2021/08/08 05:39:04;;;;;;;14.83;13.30;;;;;;;18.22;77.37;98985.13;257113;1103;116505;-66
2021/08/08 05:44:07;;;;;;;14.33;11.00;;;;;;;18.07;77.33;99023.19;253994;1104;115811;-66
2021/08/08 05:49:12;;;;;;;10.18;9.18;;;;;;;17.88;77.21;99049.47;255232;1104;117381;-66
2021/08/08 05:54:16;;;;;;;13.55;9.95;;;;;;;17.81;77.33;99066.04;255427;1104;115814;-67
2021/08/08 05:59:18;;;;;;;6.50;3.97;;;;;;;17.71;77.16;99094.00;254175;1104;116330;-65
2021/08/08 06:04:21;;;;;;;7.70;5.60;;;;;;;17.66;77.75;99112.95;255291;1104;116373;-66
2021/08/08 06:09:24;;;;;;;4.35;3.50;;;;;;;17.63;77.49;99123.49;254315;1104;115897;-66
2021/08/08 06:14:27;;;;;;;3.60;3.20;;;;;;;17.60;77.73;99129.47;255981;1104;115947;-66
2021/08/08 06:19:31;;;;;;;4.73;3.20;;;;;;;17.58;77.64;99143.23;255289;1104;115990;-66
2021/08/08 06:24:34;;;;;;;2.65;2.45;;;;;;;17.61;77.77;99148.05;257274;1103;116009;-65
2021/08/08 06:29:37;;;;;;;3.13;2.65;;;;;;;17.75;77.91;99161.58;253917;1104;115545;-65
2021/08/08 06:34:42;;;;;;;2.40;2.17;;;;;;;17.92;77.79;99194.19;257134;1104;117182;-66
2021/08/08 06:39:46;;;;;;;3.83;2.27;;;;;;;18.02;77.99;99223.69;257125;1104;117043;-69
2021/08/08 06:44:49;;;;;;;2.03;1.83;;;;;;;18.20;77.45;99232.80;257135;1104;116454;-68
2021/08/08 06:49:53;;;;;;;3.08;2.78;;;;;;;18.58;77.19;99238.86;257118;1104;116437;-69
2021/08/08 06:54:56;;;;;;;2.93;1.98;;;;;;;18.79;76.88;99252.78;257076;1104;115519;-68
2021/08/08 06:59:59;;;;;;;2.10;1.88;;;;;;;18.92;76.29;99257.39;254832;1104;115333;-66
2021/08/08 07:05:04;;;;;;;1.78;1.68;;;;;;;18.99;76.21;99259.66;256595;1099;115169;-67
2021/08/08 07:10:09;;;;;;;2.33;2.10;;;;;;;18.98;76.26;99247.26;255496;1103;116383;-66
2021/08/08 07:15:13;;;;;;;2.93;2.73;;;;;;;19.10;76.07;99234.05;254255;1103;115162;-67
2021/08/08 07:20:16;;;;;;;6.80;2.58;;;;;;;19.15;75.91;99218.53;257003;1104;114864;-67
2021/08/08 07:25:20;;;;;;;2.80;2.60;;;;;;;19.12;75.53;99229.95;255530;1104;114513;-67
2021/08/08 07:30:24;;;;;;;2.15;1.98;;;;;;;19.07;75.62;99258.97;255531;1104;114621;-67
2021/08/08 07:35:28;;;;;;;4.20;2.67;;;;;;;19.07;75.61;99262.47;257243;1104;115179;-68
2021/08/08 07:40:31;;;;;;;2.90;2.70;;;;;;;19.02;75.88;99276.07;253958;1102;116042;-68
2021/08/08 07:45:38;;;;;;;3.43;2.20;;;;;;;19.07;75.74;99285.98;253835;1104;134933;-68
2021/08/08 07:50:43;;;;;;;3.40;2.70;;;;;;;18.95;75.73;99296.51;254327;1104;114748;-68
2021/08/08 07:55:49;;;;;;;2.93;2.65;;;;;;;18.86;75.86;99291.00;255460;1104;115327;-67
2021/08/08 08:00:53;;;;;;;4.58;2.30;;;;;;;18.85;75.97;99305.59;254152;1104;114627;-68
2021/08/08 08:05:58;;;;;;;2.80;2.53;;;;;;;18.92;75.95;99308.70;255364;1103;115072;-65
2021/08/08 08:11:02;;;;;;;2.75;2.55;;;;;;;19.07;75.92;99305.69;254546;1104;115818;-66
2021/08/08 08:16:06;;;;;;;9.88;2.83;;;;;;;19.32;75.96;99319.77;255563;1104;114383;-67
2021/08/08 08:21:09;;;;;;;2.55;2.35;;;;;;;19.57;75.69;99327.36;254632;1104;115012;-66
2021/08/08 08:26:15;;;;;;;2.64;2.42;;;;;;;19.92;75.64;99311.45;255790;1104;114851;-64
2021/08/08 08:31:19;;;;;;;4.50;3.25;;;;;;;20.31;75.10;99325.11;254443;1103;115608;-65
2021/08/08 08:36:23;;;;;;;3.85;2.65;;;;;;;20.59;74.44;99325.78;257306;1104;115943;-65
2021/08/08 08:41:30;;;;;;;1.77;1.67;;;;;;;20.69;73.81;99308.47;257381;1104;115171;-66
2021/08/08 08:46:34;;;;;;;4.60;2.60;;;;;;;21.26;74.03;99319.38;257257;1104;116434;-67
2021/08/08 08:51:45;;;;;;;4.78;2.75;;;;;;;22.30;73.44;99328.41;257329;1104;116838;-68
2021/08/08 08:56:49;;;;;;;3.15;2.35;;;;;;;22.64;71.17;99341.89;255207;1098;115391;-69
2021/08/08 09:01:55;;;;;;;1.95;1.85;;;;;;;22.50;70.83;99347.53;253639;1104;115962;-68
2021/08/08 09:07:00;;;;;;;2.55;2.33;;;;;;;22.38;70.67;99360.16;253667;1104;116236;-65
2021/08/08 09:12:04;;;;;;;2.63;2.28;;;;;;;22.38;69.43;99362.88;257194;1104;116088;-65
2021/08/08 09:17:08;;;;;;;3.35;2.23;;;;;;;22.58;69.77;99375.80;254117;1104;116564;-67
2021/08/08 09:22:21;;;;;;;2.03;1.93;;;;;;;22.64;68.85;99379.13;255801;1100;117119;-67
2021/08/08 09:27:34;;;;;;;2.15;1.95;;;;;;;22.67;68.79;99392.86;255245;1103;116409;-67
2021/08/08 09:32:38;;;;;;;2.15;2.05;;;;;;;22.74;68.19;99420.34;254000;1098;115963;-68
2021/08/08 09:37:41;;;;;;;2.17;1.93;;;;;;;22.33;67.25;99426.30;255319;1104;115597;-67
2021/08/08 09:42:46;;;;;;;2.10;1.98;;;;;;;21.82;67.58;99438.67;253860;1104;117035;-65
2021/08/08 09:47:53;;;;;;;2.70;1.90;;;;;;;21.57;68.39;99441.33;254214;1104;119351;-67
2021/08/08 09:52:59;;;;;;;2.08;1.93;;;;;;;21.45;68.18;99455.47;254679;1104;114909;-68
2021/08/08 09:58:06;;;;;;;1.60;1.50;;;;;;;21.46;68.45;99462.50;253960;1104;115037;-68
2021/08/08 10:03:12;;;;;;;6.05;1.80;;;;;;;21.63;68.44;99451.73;254685;1103;115206;-68
2021/08/08 10:08:19;;;;;;;1.70;1.60;;;;;;;22.21;68.53;99445.16;254301;1104;116479;-67
2021/08/08 10:13:38;;;;;;;1.58;1.48;;;;;;;22.40;67.40;99458.41;253753;1104;115592;-66
2021/08/08 10:18:44;;;;;;;2.50;1.58;;;;;;;22.29;67.11;99470.72;254491;1104;114863;-67
2021/08/08 10:23:49;;;;;;;2.15;2.00;;;;;;;22.58;67.07;99470.89;254084;1099;114889;-66
2021/08/08 10:28:53;;;;;;;2.98;1.70;;;;;;;22.99;66.92;99478.52;253467;1100;115383;-66
2021/08/08 10:33:58;;;;;;;1.45;1.35;;;;;;;23.21;66.40;99487.60;255577;1104;115720;-67
2021/08/08 10:39:16;;;;;;;2.20;1.95;;;;;;;22.76;64.96;99490.67;257185;1103;116789;-70
2021/08/08 10:44:20;;;;;;;2.67;2.43;;;;;;;22.61;65.63;99491.98;257091;1104;114929;-69
2021/08/08 10:49:28;;;;;;;1.50;1.40;;;;;;;23.11;66.15;99489.53;256064;1104;115271;-69
2021/08/08 10:54:52;;;;;;;2.20;2.00;;;;;;;23.59;65.73;99499.31;256995;1104;116179;-68
2021/08/08 10:59:54;;;;;;;2.40;2.20;;;;;;;24.04;65.17;99506.95;257335;1103;116881;-69
2021/08/08 11:04:57;;;;;;;2.35;2.13;;;;;;;24.09;64.56;99502.11;257192;1103;116078;-69
2021/08/08 11:10:00;;;;;;;2.03;1.83;;;;;;;24.01;63.39;99489.34;257034;1104;114853;-69
2021/08/08 11:15:09;;;;;;;4.23;2.15;;;;;;;24.33;63.60;99489.80;257107;1104;115002;-69
2021/08/08 11:20:13;;;;;;;4.33;1.90;;;;;;;24.74;63.08;99502.63;257155;1104;116229;-70
2021/08/08 11:25:20;;;;;;;2.30;1.48;;;;;;;25.09;62.21;99522.19;257176;1104;115420;-69
2021/08/08 11:30:24;;;;;;;3.78;1.63;;;;;;;25.22;61.63;99526.55;256137;1104;115296;-68
2021/08/08 11:35:29;;;;;;;2.25;2.15;;;;;;;25.11;61.02;99526.17;253936;1098;115535;-67
2021/08/08 11:40:35;;;;;;;2.70;1.40;;;;;;;25.18;60.90;99534.61;255860;1098;115090;-70
2021/08/08 11:45:49;;;;;;;2.73;1.73;;;;;;;25.32;60.37;99541.70;254027;1104;115290;-66
2021/08/08 11:51:03;;;;;;;1.50;1.50;;;;;;;25.17;59.71;99535.74;253696;1104;115197;-69
2021/08/08 11:56:28;;;;;;;2.33;1.98;;;;;;;25.37;60.16;99546.95;255311;1104;117224;-69
2021/08/08 12:01:31;;;;;;;2.05;1.95;;;;;;;25.56;60.12;99547.21;253675;1103;115173;-69
2021/08/08 12:06:36;;;;;;;2.00;1.90;;;;;;;25.81;59.14;99537.94;254090;1104;114656;-69
2021/08/08 12:11:54;;;;;;;1.77;1.37;;;;;;;25.86;58.82;99541.58;254227;1104;115450;-68
2021/08/08 12:17:20;;;;;;;1.50;1.40;;;;;;;26.03;58.92;99531.21;253877;1104;114882;-68
2021/08/08 12:22:38;;;;;;;2.43;2.18;;;;;;;26.12;57.90;99547.48;253768;1104;114599;-69
2021/08/08 12:27:43;;;;;;;1.98;1.88;;;;;;;26.05;57.41;99563.65;254664;1104;115330;-69
2021/08/08 12:32:49;;;;;;;1.53;1.40;;;;;;;26.08;57.24;99579.36;254261;1104;115627;-70
2021/08/08 12:37:53;;;;;;;8.50;1.88;;;;;;;26.01;56.70;99579.13;254525;1100;115206;-70
2021/08/08 12:43:03;;;;;;;2.53;1.57;;;;;;;25.94;56.34;99570.72;253739;1098;115579;-69
2021/08/08 12:48:07;;;;;;;1.53;1.43;;;;;;;25.67;56.10;99574.91;257350;1104;115512;-69
2021/08/08 12:53:11;;;;;;;1.30;1.30;;;;;;;25.51;56.82;99580.17;253840;1104;115150;-70
2021/08/08 12:58:14;;;;;;;1.90;1.80;;;;;;;25.26;56.41;99592.95;253726;1104;115442;-70
2021/08/08 13:03:17;;;;;;;1.15;1.15;;;;;;;25.32;56.87;99585.36;257113;1104;116041;-69
2021/08/08 13:08:23;;;;;;;2.05;1.60;;;;;;;24.99;56.26;99586.14;257025;1104;116765;-69
2021/08/08 13:13:26;;;;;;;3.30;1.30;;;;;;;24.88;56.73;99581.39;257087;1104;115193;-68
2021/08/08 13:18:29;;;;;;;1.57;1.47;;;;;;;24.90;56.72;99588.10;257041;1104;117025;-69
2021/08/08 13:23:32;;;;;;;1.67;1.57;;;;;;;25.20;56.99;99583.38;257284;1104;115401;-71
2021/08/08 13:28:35;;;;;;;1.50;1.18;;;;;;;25.40;55.54;99581.73;256792;1104;115543;-68
2021/08/08 13:33:38;;;;;;;6.53;2.23;;;;;;;25.43;55.28;99581.05;255961;1104;115234;-69
2021/08/08 13:38:41;;;;;;;1.65;1.55;;;;;;;25.55;55.33;99594.74;257051;1103;117202;-69
2021/08/08 13:43:45;;;;;;;1.63;1.03;;;;;;;25.49;54.28;99594.16;256591;1104;114961;-69
2021/08/08 13:48:48;;;;;;;1.37;0.90;;;;;;;25.52;54.14;99598.14;254921;1103;115770;-69
2021/08/08 13:53:52;;;;;;;1.08;1.08;;;;;;;25.67;53.62;99583.89;255060;1104;115215;-68
2021/08/08 13:58:55;;;;;;;4.25;1.35;;;;;;;25.73;53.93;99587.97;256190;1104;116484;-69
2021/08/08 14:03:59;;;;;;;2.18;1.20;;;;;;;25.81;53.41;99594.48;253720;1104;115689;-67
2021/08/08 14:09:02;;;;;;;1.55;1.45;;;;;;;25.76;52.99;99587.30;254018;1104;117244;-69
2021/08/08 14:14:06;;;;;;;0.83;0.83;;;;;;;25.73;52.90;99590.70;253727;1104;117387;-69
2021/08/08 14:19:09;;;;;;;1.15;1.00;;;;;;;25.65;52.46;99596.28;253666;1104;116687;-68
2021/08/08 14:24:12;;;;;;;1.23;1.23;;;;;;;25.68;52.89;99599.11;253820;1104;116515;-69
2021/08/08 14:29:15;;;;;;;1.75;1.00;;;;;;;25.74;52.83;99594.23;253809;1100;116970;-69
2021/08/08 14:34:19;;;;;;;1.33;1.23;;;;;;;25.64;52.79;99592.75;253496;1103;114948;-69
2021/08/08 14:39:25;;;;;;;2.90;1.50;;;;;;;25.66;52.60;99593.22;253641;1104;114575;-69
2021/08/08 14:44:30;;;;;;;1.30;1.30;;;;;;;25.76;52.43;99598.22;253547;1100;116866;-69
2021/08/08 14:49:34;;;;;;;2.68;1.15;;;;;;;25.62;51.75;99594.20;253474;1104;116032;-69
2021/08/08 14:54:37;;;;;;;1.23;1.13;;;;;;;25.53;51.91;99598.95;253778;1104;116458;-68
2021/08/08 14:59:40;;;;;;;1.43;1.10;;;;;;;25.42;52.03;99599.36;253901;1104;118906;-69
2021/08/08 15:04:45;;;;;;;1.03;1.00;;;;;;;25.43;52.54;99594.70;253701;1104;116742;-69
2021/08/08 15:09:48;;;;;;;0.85;0.85;;;;;;;25.33;51.69;99601.40;253698;1104;117325;-69
2021/08/08 15:14:52;;;;;;;2.45;1.20;;;;;;;25.32;52.31;99605.26;254539;1103;116142;-70
2021/08/08 15:19:56;;;;;;;1.85;1.13;;;;;;;25.27;51.28;99593.75;257147;1103;115705;-70
2021/08/08 15:25:00;;;;;;;0.83;0.83;;;;;;;25.23;52.19;99595.55;257135;1104;117112;-70
2021/08/08 15:30:03;;;;;;;1.00;1.00;;;;;;;25.27;52.09;99600.00;257422;1104;118016;-70
2021/08/08 15:35:06;;;;;;;0.70;0.70;;;;;;;25.22;51.60;99602.14;257182;1104;120079;-69
2021/08/08 15:40:12;;;;;;;1.35;0.78;;;;;;;25.10;51.15;99608.33;254661;1104;115154;-69
2021/08/08 15:45:36;;;;;;;1.20;1.10;;;;;;;25.08;52.08;99619.58;257285;1103;115681;-68
2021/08/08 15:50:40;;;;;;;0.98;0.98;;;;;;;25.14;52.03;99615.52;256762;1100;115940;-69
2021/08/08 15:55:43;;;;;;;1.33;1.23;;;;;;;25.15;51.84;99608.92;253510;1104;116135;-69
2021/08/08 16:00:47;;;;;;;0.73;0.73;;;;;;;24.99;51.55;99616.14;253544;1104;116538;-69
2021/08/08 16:05:50;;;;;;;1.83;1.48;;;;;;;24.86;51.34;99625.34;257216;1103;115620;-69
2021/08/08 16:10:53;;;;;;;1.25;1.15;;;;;;;24.71;51.17;99634.13;254950;1104;116262;-69
2021/08/08 16:15:57;;;;;;;0.80;0.80;;;;;;;24.61;51.42;99632.58;253808;1104;116495;-69
2021/08/08 16:21:00;;;;;;;2.23;1.20;;;;;;;24.33;51.80;99632.26;253661;1104;116608;-69
2021/08/08 16:26:05;;;;;;;0.85;0.85;;;;;;;24.04;51.60;99624.83;253572;1104;116368;-69
2021/08/08 16:31:11;;;;;;;2.75;0.90;;;;;;;23.87;52.47;99624.08;253808;1104;116320;-68
2021/08/08 16:36:15;;;;;;;0.73;0.73;;;;;;;23.60;53.05;99628.00;253711;1104;117544;-70
2021/08/08 16:41:19;;;;;;;1.65;1.55;;;;;;;23.41;53.70;99623.70;253656;1104;116229;-69
2021/08/08 16:46:22;;;;;;;1.10;1.10;;;;;;;23.30;54.39;99621.62;254927;1098;117380;-69
2021/08/08 16:51:31;;;;;;;2.78;1.30;;;;;;;23.17;54.54;99629.64;253771;1099;116013;-68
2021/08/08 16:56:35;;;;;;;2.67;1.30;;;;;;;23.02;55.04;99632.03;253793;1104;114974;-68
2021/08/08 17:01:39;;;;;;;2.85;1.50;;;;;;;22.91;55.37;99636.20;256461;1104;115243;-68
2021/08/08 17:06:43;;;;;;;1.85;0.90;;;;;;;22.75;55.63;99646.69;255908;1104;117434;-68
2021/08/08 17:11:50;;;;;;;0.70;0.70;;;;;;;22.56;55.77;99652.41;253840;1104;115777;-68
2021/08/08 17:16:54;;;;;;;1.40;1.23;;;;;;;22.38;56.61;99665.13;254086;1104;114635;-69
2021/08/08 17:21:57;;;;;;;1.08;0.95;;;;;;;22.17;56.70;99658.67;256442;1103;115040;-69
2021/08/08 17:27:00;;;;;;;0.70;0.70;;;;;;;21.93;56.94;99661.72;257046;1103;115812;-68
2021/08/08 17:32:03;;;;;;;1.25;1.25;;;;;;;21.75;57.49;99663.52;256447;1104;115033;-68
2021/08/08 17:37:07;;;;;;;1.33;1.23;;;;;;;21.61;57.99;99657.39;253668;1103;115273;-70
2021/08/08 17:42:12;;;;;;;1.95;0.93;;;;;;;21.40;58.16;99659.01;253979;1104;116304;-68
2021/08/08 17:47:16;;;;;;;1.08;1.08;;;;;;;21.23;58.75;99664.28;253840;1104;116203;-68
2021/08/08 17:52:19;;;;;;;0.83;0.83;;;;;;;21.00;59.14;99666.94;253768;1104;115144;-68
2021/08/08 17:57:23;;;;;;;1.20;1.20;;;;;;;20.89;60.26;99675.58;253518;1104;115236;-67
2021/08/08 18:02:27;;;;;;;1.55;1.33;;;;;;;20.83;60.76;99677.59;255300;1104;136700;-69
2021/08/08 18:07:31;;;;;;;7.60;1.80;;;;;;;20.78;61.75;99675.02;254160;1103;207229;-68
2021/08/08 18:12:34;;;;;;;1.90;1.33;;;;;;;20.72;62.35;99673.52;253746;1104;115266;-68
2021/08/08 18:17:37;;;;;;;0.88;0.88;;;;;;;20.66;62.40;99682.84;253677;1104;114897;-68
2021/08/08 18:22:40;;;;;;;0.80;0.80;;;;;;;20.60;62.70;99694.88;253761;1104;114893;-69
2021/08/08 18:27:43;;;;;;;1.50;1.40;;;;;;;20.47;62.46;99700.02;253791;1104;114850;-69
2021/08/08 18:32:50;;;;;;;1.48;1.48;;;;;;;20.34;62.85;99708.09;253802;1104;115613;-67
2021/08/08 18:37:53;;;;;;;3.03;1.65;;;;;;;20.15;63.02;99719.00;256222;1104;116097;-68
2021/08/08 18:42:57;;;;;;;2.60;1.70;;;;;;;19.96;63.15;99721.75;253589;1104;116516;-68
2021/08/08 18:48:01;;;;;;;3.25;1.83;;;;;;;19.70;63.10;99720.57;253874;1104;116370;-70
2021/08/08 18:53:06;;;;;;;2.53;2.10;;;;;;;19.58;63.82;99717.51;253418;1104;116451;-68
2021/08/08 18:58:11;;;;;;;2.10;2.00;;;;;;;19.42;63.83;99725.03;253479;1104;119294;-67
2021/08/08 19:03:15;;;;;;;2.33;2.20;;;;;;;19.16;64.33;99727.30;253485;1104;115625;-67
2021/08/08 19:08:21;;;;;;;2.05;1.50;;;;;;;18.96;64.39;99725.66;253474;1104;116310;-68
2021/08/08 19:13:26;;;;;;;4.83;2.13;;;;;;;18.73;65.25;99740.80;255539;1104;118076;-67
2021/08/08 19:18:29;;;;;;;2.30;2.20;;;;;;;18.56;65.44;99745.04;253864;1104;117163;-69
2021/08/08 19:23:33;;;;;;;2.40;2.20;;;;;;;18.37;65.60;99732.26;253504;1104;116032;-68
2021/08/08 19:28:37;;;;;;;2.58;2.35;;;;;;;18.28;66.19;99749.38;257059;1104;116027;-68
2021/08/08 19:33:44;;;;;;;3.87;2.40;;;;;;;18.15;66.30;99740.05;257161;1104;116355;-69
2021/08/08 19:38:47;;;;;;;4.50;3.47;;;;;;;17.99;66.76;99746.69;257067;1104;117019;-68
2021/08/08 19:43:50;;;;;;;7.40;3.17;;;;;;;17.95;67.15;99749.14;257181;1103;116257;-68
2021/08/08 19:48:54;;;;;;;4.15;3.00;;;;;;;17.92;67.13;99762.38;257085;1104;116463;-67
2021/08/08 19:54:00;;;;;;;8.48;5.98;;;;;;;17.94;67.56;99776.39;257243;1104;116726;-66
2021/08/08 19:59:03;;;;;;;7.10;6.40;;;;;;;17.88;67.65;99772.12;257089;1104;116287;-67
2021/08/08 20:04:07;;;;;;;7.05;4.98;;;;;;;17.69;67.50;99770.11;257252;1104;136690;-66
2021/08/08 20:09:10;;;;;;;11.70;5.60;;;;;;;17.57;67.88;99766.11;255440;1103;116051;-65
2021/08/08 20:14:13;;;;;;;8.47;5.97;;;;;;;17.40;68.28;99775.39;255480;1099;116316;-66
2021/08/08 20:19:17;;;;;;;7.70;6.80;;;;;;;17.24;68.50;99773.04;256152;1104;116935;-66
2021/08/08 20:24:21;;;;;;;8.63;6.90;;;;;;;17.15;68.94;99779.00;257183;1104;116350;-66
2021/08/08 20:29:25;;;;;;;9.33;6.53;;;;;;;17.15;68.80;99784.38;257219;1104;115910;-66
2021/08/08 20:34:28;;;;;;;8.00;6.07;;;;;;;17.17;69.42;99793.00;257133;1104;115986;-66
2021/08/08 20:39:32;;;;;;;9.88;6.40;;;;;;;17.16;69.19;99787.88;256698;1104;116521;-66
2021/08/08 20:44:35;;;;;;;5.65;5.15;;;;;;;17.11;69.39;99786.05;257276;1104;117952;-66
2021/08/08 20:49:39;;;;;;;5.27;4.73;;;;;;;17.01;69.37;99791.46;255381;1104;116370;-66
2021/08/08 20:54:42;;;;;;;4.58;4.15;;;;;;;17.04;69.50;99795.50;257244;1104;115259;-66
2021/08/08 20:59:45;;;;;;;4.35;3.95;;;;;;;17.01;70.15;99806.81;253976;1104;116416;-66
2021/08/08 21:04:48;;;;;;;9.90;4.13;;;;;;;16.95;69.96;99813.30;253732;1104;116056;-66
2021/08/08 21:09:52;;;;;;;4.13;3.33;;;;;;;16.86;70.37;99810.35;254030;1104;117008;-65
2021/08/08 21:14:57;;;;;;;4.13;3.58;;;;;;;16.87;70.90;99801.20;256330;1099;115782;-66
2021/08/08 21:20:00;;;;;;;4.53;4.13;;;;;;;16.93;70.89;99810.88;255315;1098;116055;-66
2021/08/08 21:25:04;;;;;;;3.73;3.38;;;;;;;16.93;70.98;99810.88;254234;1104;115929;-66
2021/08/08 21:30:09;;;;;;;3.65;3.35;;;;;;;17.03;71.29;99810.84;254309;1103;116219;-66
2021/08/08 21:35:12;;;;;;;3.93;3.53;;;;;;;17.14;71.61;99807.02;255495;1100;115628;-66
2021/08/08 21:40:21;;;;;;;5.65;3.53;;;;;;;17.28;71.61;99801.04;256566;1100;115576;-66
2021/08/08 21:45:24;;;;;;;8.00;3.33;;;;;;;17.33;71.50;99796.44;256977;1104;115767;-67
2021/08/08 21:50:28;;;;;;;2.75;2.55;;;;;;;17.40;71.53;99788.86;257123;1104;115475;-67
2021/08/08 21:55:31;;;;;;;3.53;3.23;;;;;;;17.42;71.75;99791.28;257191;1103;114956;-66
2021/08/08 22:00:35;;;;;;;2.83;2.63;;;;;;;17.46;71.22;99797.70;257305;1104;116747;-66
2021/08/08 22:05:39;;;;;;;4.28;2.98;;;;;;;17.55;71.64;99787.14;257328;1104;115546;-66
2021/08/08 22:10:42;;;;;;;3.10;2.90;;;;;;;17.53;71.75;99789.31;257356;1104;114813;-66
2021/08/08 22:15:46;;;;;;;3.73;2.77;;;;;;;17.56;71.51;99783.36;255392;1104;115147;-65
2021/08/08 22:20:49;;;;;;;2.63;2.48;;;;;;;17.54;71.73;99789.03;257139;1104;117010;-65
2021/08/08 22:25:53;;;;;;;3.05;2.85;;;;;;;17.50;71.70;99793.36;257175;1104;114897;-66
2021/08/08 22:30:56;;;;;;;6.43;2.68;;;;;;;17.53;72.14;99787.42;254183;1104;115668;-67
2021/08/08 22:35:59;;;;;;;3.28;2.98;;;;;;;17.54;72.16;99794.42;254796;1104;114744;-66
2021/08/08 22:41:03;;;;;;;3.73;3.30;;;;;;;17.50;72.27;99814.92;257267;1104;115276;-66
2021/08/08 22:46:06;;;;;;;3.18;2.78;;;;;;;17.51;72.43;99827.31;255198;1104;115006;-66
2021/08/08 22:51:09;;;;;;;2.78;2.58;;;;;;;17.42;72.04;99824.42;257226;1104;115197;-66
2021/08/08 22:56:13;;;;;;;2.58;2.38;;;;;;;17.24;72.19;99840.39;257033;1104;115046;-66
2021/08/08 23:01:18;;;;;;;2.55;2.45;;;;;;;17.05;72.07;99843.70;256997;1104;116185;-66
2021/08/08 23:06:21;;;;;;;3.80;3.50;;;;;;;17.03;72.87;99848.55;255445;1104;115093;-66
2021/08/08 23:11:26;;;;;;;3.10;2.80;;;;;;;17.10;73.03;99851.77;257016;1104;115643;-66
2021/08/08 23:16:29;;;;;;;4.43;3.15;;;;;;;17.25;73.07;99858.16;257049;1103;115064;-67
2021/08/08 23:21:33;;;;;;;4.53;3.35;;;;;;;17.28;73.07;99860.31;254801;1098;116053;-67